createdAt,value
2019-02-26T00:00:49.656Z,63.90
2019-02-26T00:03:19.426Z,63.50
2019-02-26T00:05:49.863Z,63.40
2019-02-26T00:08:19.475Z,63.10
2019-02-26T00:10:46.538Z,63.30
2019-02-26T00:13:14.810Z,63.40
2019-02-26T00:15:43.768Z,63.50
2019-02-26T00:18:13.937Z,63.30
2019-02-26T00:20:43.038Z,63.40
2019-02-26T00:23:11.388Z,63.50
2019-02-26T00:25:39.738Z,63.60
2019-02-26T00:28:08.080Z,64.10
2019-02-26T00:30:37.915Z,64.00
2019-02-26T00:33:06.398Z,64.00
2019-02-26T00:35:34.682Z,63.90
2019-02-26T00:38:03.040Z,64.20
2019-02-26T00:40:32.621Z,64.60
2019-02-26T00:43:02.557Z,65.00
2019-02-26T00:45:32.332Z,65.10
2019-02-26T00:48:01.389Z,66.10
2019-02-26T00:50:30.375Z,65.90
2019-02-26T00:53:01.603Z,66.10
2019-02-26T00:55:30.300Z,66.10
2019-02-26T00:58:01.069Z,66.30
2019-02-26T01:00:37.614Z,66.70
2019-02-26T01:03:10.943Z,66.90
2019-02-26T01:05:40.897Z,66.60
2019-02-26T01:08:12.658Z,66.70
2019-02-26T01:10:39.870Z,67.80
2019-02-26T01:13:09.243Z,68.30
2019-02-26T01:15:37.587Z,69.40
2019-02-26T01:18:06.139Z,69.70
2019-02-26T01:20:34.428Z,68.80
2019-02-26T01:23:02.779Z,69.10
2019-02-26T01:25:31.157Z,69.20
2019-02-26T01:28:00.472Z,68.90
2019-02-26T01:30:31.145Z,69.00
2019-02-26T01:33:00.579Z,69.40
2019-02-26T01:35:30.821Z,69.20
2019-02-26T01:38:00.514Z,69.00
2019-02-26T01:40:29.066Z,69.10
2019-02-26T01:42:57.956Z,69.00
2019-02-26T01:45:29.731Z,68.90
2019-02-26T01:47:57.376Z,68.90
2019-02-26T01:50:25.678Z,68.80
2019-02-26T01:52:54.477Z,68.60
2019-02-26T01:55:25.329Z,69.00
2019-02-26T01:57:54.035Z,68.90
2019-02-26T02:00:25.421Z,68.70
2019-02-26T02:02:52.394Z,69.00
2019-02-26T02:05:21.597Z,69.10
2019-02-26T02:07:51.839Z,68.90
2019-02-26T02:10:20.711Z,69.20
2019-02-26T02:12:49.085Z,69.10
2019-02-26T02:15:20.446Z,69.10
2019-02-26T02:17:47.415Z,69.20
2019-02-26T02:20:19.409Z,69.50
2019-02-26T02:22:46.150Z,69.40
2019-02-26T02:25:14.746Z,69.70
2019-02-26T02:27:43.073Z,70.00
2019-02-26T02:30:22.414Z,70.10
2019-02-26T02:32:50.470Z,70.40
2019-02-26T02:35:17.832Z,70.30
2019-02-26T02:37:44.963Z,70.50
2019-02-26T02:40:13.784Z,70.30
2019-02-26T02:42:43.168Z,70.30
2019-02-26T02:45:16.201Z,70.30
2019-02-26T02:47:42.915Z,70.30
2019-02-26T02:50:15.317Z,70.10
2019-02-26T02:52:43.386Z,70.00
2019-02-26T02:55:13.900Z,70.20
2019-02-26T02:57:41.790Z,70.50
2019-02-26T03:03:06.070Z,70.70
2019-02-26T03:05:37.295Z,70.80
2019-02-26T03:08:04.447Z,70.70
2019-02-26T03:10:34.609Z,70.90
2019-02-26T03:13:02.956Z,71.00
2019-02-26T03:15:35.219Z,70.80
2019-02-26T03:18:03.498Z,70.90
2019-02-26T03:20:35.616Z,70.80
2019-02-26T03:23:01.446Z,70.90
2019-02-26T03:25:29.780Z,70.70
2019-02-26T03:27:58.161Z,70.70
2019-02-26T03:30:32.852Z,70.90
2019-02-26T03:33:03.356Z,70.90
2019-02-26T03:35:26.516Z,70.90
2019-02-26T03:37:57.918Z,70.90
2019-02-26T03:40:27.214Z,71.00
2019-02-26T03:42:54.819Z,71.20
2019-02-26T03:45:24.696Z,71.10
2019-02-26T03:47:55.329Z,71.30
2019-02-26T03:50:26.349Z,71.30
2019-02-26T03:52:53.278Z,71.40
2019-02-26T03:55:21.640Z,71.60
2019-02-26T03:57:53.347Z,71.60
2019-02-26T04:00:20.521Z,71.80
2019-02-26T04:02:51.632Z,71.60
2019-02-26T04:05:19.070Z,71.40
2019-02-26T04:07:51.607Z,71.30
2019-02-26T04:10:17.544Z,71.70
2019-02-26T04:12:48.689Z,71.60
2019-02-26T04:15:16.909Z,72.20
2019-02-26T04:17:45.359Z,72.30
2019-02-26T04:20:14.559Z,72.40
2019-02-26T04:22:46.054Z,72.30
2019-02-26T04:25:16.158Z,72.30
2019-02-26T04:27:47.555Z,72.10
2019-02-26T04:30:19.168Z,72.10
2019-02-26T04:32:50.774Z,72.00
2019-02-26T04:35:21.134Z,71.90
2019-02-26T04:37:53.111Z,72.10
2019-02-26T04:40:28.373Z,72.10
2019-02-26T04:42:59.893Z,71.90
2019-02-26T04:45:32.545Z,71.90
2019-02-26T04:48:04.173Z,72.00
2019-02-26T04:50:35.697Z,71.90
2019-02-26T04:53:05.028Z,72.00
2019-02-26T04:55:35.517Z,72.00
2019-02-26T04:58:02.712Z,72.00
2019-02-26T05:00:35.322Z,71.90
2019-02-26T05:03:01.036Z,72.20
2019-02-26T05:05:31.978Z,72.10
2019-02-26T05:07:59.569Z,72.10
2019-02-26T05:10:29.907Z,72.50
2019-02-26T05:13:00.321Z,72.50
2019-02-26T05:15:32.476Z,72.30
2019-02-26T05:17:57.915Z,72.30
2019-02-26T05:20:26.276Z,72.60
2019-02-26T05:22:58.453Z,73.00
2019-02-26T05:25:25.588Z,73.10
2019-02-26T05:27:54.472Z,73.20
2019-02-26T05:30:22.896Z,73.30
2019-02-26T05:32:53.967Z,73.40
2019-02-26T05:35:23.376Z,73.50
2019-02-26T05:37:51.372Z,73.80
2019-02-26T05:40:22.083Z,73.80
2019-02-26T05:42:49.731Z,74.10
2019-02-26T05:45:18.128Z,74.00
2019-02-26T05:47:50.237Z,73.50
2019-02-26T05:50:16.849Z,73.50
2019-02-26T05:56:26.109Z,73.90
2019-02-26T05:58:54.507Z,73.70
2019-02-26T06:01:25.035Z,74.00
2019-02-26T06:03:52.984Z,73.80
2019-02-26T06:06:22.956Z,73.80
2019-02-26T06:08:51.475Z,73.90
2019-02-26T06:11:19.812Z,74.00
2019-02-26T06:16:55.887Z,74.20
2019-02-26T06:19:27.570Z,74.40
2019-02-26T06:21:56.648Z,74.20
2019-02-26T06:24:27.030Z,74.20
2019-02-26T06:26:55.271Z,74.00
2019-02-26T06:30:05.968Z,74.00
2019-02-26T06:32:32.850Z,74.20
2019-02-26T06:35:01.750Z,74.30
2019-02-26T06:37:31.341Z,74.30
2019-02-26T06:40:02.543Z,74.10
2019-02-26T06:42:31.557Z,74.20
2019-02-26T06:45:00.340Z,74.30
2019-02-26T06:47:30.972Z,74.20
2019-02-26T06:49:58.639Z,74.20
2019-02-26T06:52:26.915Z,74.30
2019-02-26T06:54:59.607Z,74.50
2019-02-26T06:57:25.611Z,74.60
2019-02-26T06:59:56.369Z,74.50
2019-02-26T07:02:28.276Z,74.30
2019-02-26T07:04:53.975Z,74.30
2019-02-26T07:07:22.352Z,74.40
2019-02-26T07:09:50.637Z,74.40
2019-02-26T07:12:20.017Z,74.40
2019-02-26T07:14:50.751Z,74.40
2019-02-26T07:27:13.826Z,75.50
2019-02-26T07:29:44.390Z,75.20
2019-02-26T07:32:12.326Z,75.70
2019-02-26T07:34:42.947Z,75.60
2019-02-26T07:37:13.465Z,76.20
2019-02-26T07:39:44.250Z,77.20
2019-02-26T07:42:14.673Z,77.60
2019-02-26T07:44:42.813Z,77.90
2019-02-26T07:47:14.473Z,78.60
2019-02-26T07:49:42.893Z,78.60
2019-02-26T07:52:11.264Z,79.10
2019-02-26T07:54:41.886Z,79.40
2019-02-26T07:57:15.631Z,79.50
2019-02-26T07:59:45.099Z,79.80
2019-02-26T08:02:38.359Z,79.60
2019-02-26T08:08:09.789Z,79.30
2019-02-26T08:10:40.103Z,79.20
2019-02-26T08:13:08.115Z,79.30
2019-02-26T08:15:37.550Z,78.90
2019-02-26T08:18:06.451Z,78.70
2019-02-26T08:20:35.648Z,77.90
2019-02-26T08:23:04.847Z,77.90
2019-02-26T08:25:33.148Z,77.30
2019-02-26T08:28:01.556Z,77.10
2019-02-26T08:30:29.924Z,76.70
2019-02-26T08:32:58.987Z,76.00
2019-02-26T08:35:28.318Z,75.30
2019-02-26T08:37:56.768Z,75.00
2019-02-26T08:40:25.192Z,74.20
2019-02-26T08:42:53.559Z,73.90
2019-02-26T08:49:08.062Z,72.50
2019-02-26T09:04:42.291Z,69.60
2019-02-26T09:07:10.241Z,69.40
2019-02-26T09:09:38.535Z,68.60
2019-02-26T09:12:06.838Z,67.80
2019-02-26T09:14:37.543Z,68.50
2019-02-26T09:17:05.107Z,68.20
2019-02-26T09:19:35.481Z,65.90
2019-02-26T09:22:03.443Z,64.90
2019-02-26T09:24:31.702Z,64.60
2019-02-26T09:27:02.308Z,63.50
2019-02-26T09:29:29.956Z,62.60
2019-02-26T09:31:58.218Z,61.30
2019-02-26T09:34:28.705Z,58.60
2019-02-26T09:36:58.159Z,57.20
2019-02-26T09:39:27.502Z,57.90
2019-02-26T09:41:57.567Z,58.10
2019-02-26T09:44:28.654Z,57.90
2019-02-26T09:46:58.345Z,57.30
2019-02-26T09:49:28.367Z,56.70
2019-02-26T09:51:56.810Z,56.10
2019-02-26T09:54:26.399Z,55.80
2019-02-26T09:56:54.630Z,54.50
2019-02-26T09:59:22.983Z,52.70
2019-02-26T10:01:51.235Z,52.40
2019-02-26T10:04:20.147Z,50.90
2019-02-26T10:06:49.552Z,50.00
2019-02-26T10:09:18.866Z,49.40
2019-02-26T10:11:49.309Z,50.00
2019-02-26T10:14:17.821Z,49.30
2019-02-26T10:16:47.098Z,49.60
2019-02-26T10:19:17.203Z,49.40
2019-02-26T10:21:46.170Z,48.90
2019-02-26T10:26:53.381Z,47.70
2019-02-26T10:29:21.691Z,47.10
2019-02-26T10:31:49.934Z,46.50
2019-02-26T10:34:20.395Z,45.60
2019-02-26T10:36:49.715Z,42.70
2019-02-26T10:39:20.566Z,42.00
2019-02-26T10:41:48.228Z,42.00
2019-02-26T10:44:16.471Z,41.90
2019-02-26T10:46:44.744Z,40.50
2019-02-26T10:49:12.992Z,41.00
2019-02-26T10:51:42.644Z,41.10
2019-02-26T10:54:13.747Z,39.60
2019-02-26T10:56:42.551Z,39.60
2019-02-26T10:59:13.107Z,39.70
2019-02-26T11:01:41.180Z,39.10
2019-02-26T11:04:09.457Z,39.20
2019-02-26T11:06:39.798Z,38.80
2019-02-26T11:09:09.891Z,37.40
2019-02-26T11:11:39.969Z,37.90
2019-02-26T11:14:10.444Z,37.20
2019-02-26T11:16:39.084Z,36.80
2019-02-26T11:19:10.373Z,36.20
2019-02-26T11:21:37.697Z,35.20
2019-02-26T11:24:06.601Z,35.00
2019-02-26T11:26:38.158Z,35.90
2019-02-26T11:29:06.051Z,35.60
2019-02-26T11:31:36.147Z,35.00
2019-02-26T11:34:09.236Z,34.60
2019-02-26T11:36:36.510Z,35.00
2019-02-26T11:39:06.835Z,34.70
2019-02-26T11:41:36.144Z,35.10
2019-02-26T11:44:07.551Z,35.80
2019-02-26T11:46:34.530Z,35.50
2019-02-26T11:49:03.834Z,33.80
2019-02-26T11:51:37.115Z,34.60
2019-02-26T11:54:04.695Z,34.00
2019-02-26T11:56:32.082Z,34.00
2019-02-26T11:59:00.414Z,34.30
2019-02-26T12:01:29.350Z,34.20
2019-02-26T12:04:03.210Z,34.10
2019-02-26T12:06:28.739Z,32.40
2019-02-26T12:08:57.057Z,33.60
2019-02-26T12:11:25.312Z,31.20
2019-02-26T12:13:53.571Z,31.90
2019-02-26T12:16:21.847Z,31.70
2019-02-26T12:18:50.144Z,32.00
2019-02-26T12:21:20.019Z,32.00
2019-02-26T12:23:48.276Z,30.70
2019-02-26T12:26:19.168Z,31.20
2019-02-26T12:28:46.536Z,31.20
2019-02-26T12:31:14.803Z,30.60
2019-02-26T12:33:57.438Z,31.00
2019-02-26T12:36:26.626Z,30.00
2019-02-26T12:38:56.491Z,30.80
2019-02-26T12:41:25.740Z,31.60
2019-02-26T12:43:53.995Z,31.10
2019-02-26T12:46:24.350Z,31.80
2019-02-26T12:48:52.220Z,32.00
2019-02-26T12:51:22.637Z,31.30
2019-02-26T12:53:50.721Z,31.60
2019-02-26T12:56:20.840Z,31.40
2019-02-26T12:58:52.030Z,30.90
2019-02-26T13:01:19.025Z,31.30
2019-02-26T13:03:54.021Z,31.40
2019-02-26T13:08:49.764Z,31.60
2019-02-26T13:11:18.288Z,30.60
2019-02-26T13:13:49.742Z,31.20
2019-02-26T13:16:17.369Z,30.60
2019-02-26T13:18:47.796Z,31.20
2019-02-26T13:21:17.229Z,31.20
2019-02-26T13:23:45.797Z,35.10
2019-02-26T13:26:18.169Z,38.80
2019-02-26T13:28:46.771Z,38.90
2019-02-26T13:31:18.198Z,39.40
2019-02-26T13:33:44.165Z,40.30
2019-02-26T13:36:12.609Z,40.40
2019-02-26T13:38:45.012Z,41.50
2019-02-26T13:41:28.727Z,40.40
2019-02-26T13:43:40.974Z,40.90
2019-02-26T13:46:09.257Z,41.00
2019-02-26T13:48:37.584Z,40.80
2019-02-26T13:51:05.916Z,40.30
2019-02-26T13:53:34.221Z,40.10
2019-02-26T13:56:04.863Z,40.10
2019-02-26T13:58:33.226Z,39.90
2019-02-26T14:01:03.865Z,40.00
2019-02-26T14:03:32.180Z,40.50
2019-02-26T14:06:12.389Z,39.70
2019-02-26T14:08:40.814Z,39.00
2019-02-26T14:11:11.159Z,39.00
2019-02-26T14:13:39.744Z,39.30
2019-02-26T14:16:08.389Z,39.00
2019-02-26T14:18:40.180Z,38.80
2019-02-26T14:27:15.419Z,39.30
2019-02-26T14:29:43.701Z,39.00
2019-02-26T14:32:11.983Z,38.80
2019-02-26T14:34:41.152Z,38.90
2019-02-26T14:37:11.063Z,38.70
2019-02-26T14:39:39.334Z,38.90
2019-02-26T14:42:07.688Z,38.70
2019-02-26T14:44:36.090Z,38.30
2019-02-26T14:47:06.274Z,38.10
2019-02-26T14:49:36.037Z,38.50
2019-02-26T14:52:04.397Z,38.60
2019-02-26T14:54:32.737Z,37.40
2019-02-26T14:57:01.001Z,37.80
2019-02-26T14:59:29.264Z,37.50
2019-02-26T15:01:57.547Z,37.60
2019-02-26T15:04:25.808Z,37.20
2019-02-26T15:06:55.811Z,37.60
2019-02-26T15:09:24.289Z,37.80
2019-02-26T15:11:52.546Z,37.70
2019-02-26T15:14:20.852Z,37.50
2019-02-26T15:16:49.194Z,37.80
2019-02-26T15:19:17.517Z,38.00
2019-02-26T15:21:45.760Z,37.90
2019-02-26T15:24:14.034Z,38.00
2019-02-26T15:26:42.400Z,38.70
2019-02-26T15:29:10.672Z,38.00
2019-02-26T15:31:39.646Z,38.10
2019-02-26T15:34:11.018Z,38.80
2019-02-26T15:36:39.386Z,39.10
2019-02-26T15:39:07.776Z,39.30
2019-02-26T15:41:36.118Z,39.30
2019-02-26T15:44:04.433Z,39.10
2019-02-26T15:46:32.814Z,39.20
2019-02-26T15:49:01.162Z,39.90
2019-02-26T15:51:29.465Z,39.50
2019-02-26T15:53:59.478Z,39.40
2019-02-26T15:56:29.775Z,39.60
2019-02-26T15:58:58.750Z,40.10
2019-02-26T16:01:28.271Z,42.60
2019-02-26T16:03:56.544Z,44.10
2019-02-26T16:06:24.957Z,44.20
2019-02-26T16:08:56.169Z,43.30
2019-02-26T16:11:24.495Z,42.30
2019-02-26T16:13:52.845Z,42.70
2019-02-26T16:16:32.875Z,43.20
2019-02-26T16:19:01.342Z,43.40
2019-02-26T16:21:30.523Z,43.20
2019-02-26T16:23:58.947Z,43.50
2019-02-26T16:29:27.182Z,44.00
2019-02-26T16:31:57.282Z,44.20
2019-02-26T16:34:25.813Z,44.10
2019-02-26T16:36:54.131Z,44.60
2019-02-26T16:39:24.679Z,44.10
2019-02-26T16:41:52.428Z,44.10
2019-02-26T16:44:22.520Z,44.30
2019-02-26T16:46:50.777Z,44.60
2019-02-26T16:49:19.112Z,45.30
2019-02-26T16:51:47.679Z,46.10
2019-02-26T16:54:15.997Z,46.50
2019-02-26T16:56:44.324Z,47.10
2019-02-26T16:59:12.603Z,47.20
2019-02-26T17:01:40.898Z,47.00
2019-02-26T17:04:09.174Z,47.10
2019-02-26T17:06:37.437Z,46.80
2019-02-26T17:09:06.485Z,46.30
2019-02-26T17:11:38.413Z,45.90
2019-02-26T17:14:06.771Z,45.70
2019-02-26T17:16:35.109Z,45.60
2019-02-26T17:19:06.287Z,45.80
2019-02-26T17:21:37.099Z,45.90
2019-02-26T17:24:29.652Z,46.20
2019-02-26T17:26:58.000Z,46.60
2019-02-26T17:29:26.650Z,46.90
2019-02-26T17:31:54.966Z,47.20
2019-02-26T17:34:23.642Z,47.50
2019-02-26T17:36:52.035Z,47.60
2019-02-26T17:39:23.667Z,47.80
2019-02-26T17:41:53.095Z,48.00
2019-02-26T17:44:21.380Z,48.40
2019-02-26T17:46:49.675Z,48.40
2019-02-26T17:49:18.098Z,48.60
2019-02-26T17:51:46.445Z,48.90
2019-02-26T17:54:15.001Z,49.20
2019-02-26T17:56:43.662Z,49.50
2019-02-26T17:59:12.127Z,49.70
2019-02-26T18:01:40.380Z,50.10
2019-02-26T18:04:08.668Z,50.20
2019-02-26T18:06:36.996Z,50.40
2019-02-26T18:09:05.590Z,50.60
2019-02-26T18:11:33.870Z,50.70
2019-02-26T18:14:02.202Z,51.00
2019-02-26T18:16:33.674Z,51.30
2019-02-26T18:19:00.479Z,51.60
2019-02-26T18:24:51.152Z,52.60
2019-02-26T18:48:55.904Z,54.90
2019-02-26T18:51:24.251Z,55.00
2019-02-26T18:53:52.582Z,55.20
2019-02-26T18:56:20.867Z,55.50
2019-02-26T18:58:49.702Z,55.80
2019-02-26T19:01:18.318Z,56.30
2019-02-26T19:03:46.577Z,56.70
2019-02-26T19:06:14.879Z,57.10
2019-02-26T19:08:43.118Z,57.30
2019-02-26T19:11:16.683Z,57.70
2019-02-26T19:13:42.997Z,57.90
2019-02-26T19:16:11.277Z,57.90
2019-02-26T19:18:39.543Z,57.90
2019-02-26T19:21:07.844Z,58.10
2019-02-26T19:23:36.092Z,58.10
2019-02-26T19:26:04.387Z,58.10
2019-02-26T19:28:32.731Z,58.50
2019-02-26T19:31:01.064Z,59.00
2019-02-26T19:33:29.371Z,58.30
2019-02-26T19:35:57.620Z,58.80
2019-02-26T19:38:27.702Z,59.10
2019-02-26T19:40:59.103Z,59.50
2019-02-26T19:43:28.823Z,60.40
2019-02-26T19:45:57.319Z,60.30
2019-02-26T19:48:25.572Z,60.60
2019-02-26T19:50:54.038Z,60.70
2019-02-26T19:53:22.286Z,60.80
2019-02-26T19:55:53.143Z,60.70
2019-02-26T19:58:20.605Z,61.30
2019-02-26T20:00:52.703Z,62.00
2019-02-26T20:03:18.876Z,61.50
2019-02-26T20:05:47.263Z,61.30
2019-02-26T20:08:15.537Z,61.40
2019-02-26T20:10:47.888Z,61.50
2019-02-26T20:13:13.800Z,61.90
2019-02-26T20:15:42.082Z,62.00
2019-02-26T20:18:20.081Z,61.80
2019-02-26T20:20:41.144Z,61.90
2019-02-26T20:23:09.647Z,62.00
2019-02-26T20:25:37.947Z,62.20
2019-02-26T20:28:06.240Z,62.30
2019-02-26T20:30:34.569Z,62.20
2019-02-26T20:33:10.330Z,62.30
2019-02-26T20:35:38.656Z,62.40
2019-02-26T20:41:08.764Z,62.70
2019-02-26T20:43:37.397Z,62.50
2019-02-26T21:20:42.697Z,64.90
2019-02-26T21:23:10.986Z,65.40
2019-02-26T21:25:43.816Z,65.40
2019-02-26T21:28:09.207Z,65.70
2019-02-26T21:30:37.579Z,65.80
2019-02-26T21:33:06.087Z,65.80
2019-02-26T21:35:34.379Z,66.10
2019-02-26T21:38:05.749Z,66.10
2019-02-26T21:40:32.629Z,66.20
2019-02-26T21:43:02.411Z,66.10
2019-02-26T21:45:30.845Z,66.20
2019-02-26T21:48:02.522Z,66.20
2019-02-26T21:50:29.101Z,66.10
2019-02-26T21:53:09.211Z,66.20
2019-02-26T21:55:44.496Z,66.30
2019-02-26T21:58:10.186Z,66.20
2019-02-26T22:00:40.281Z,66.20
2019-02-26T22:03:08.584Z,66.10
2019-02-26T22:05:37.921Z,66.20
2019-02-26T22:08:06.778Z,66.40
2019-02-26T22:10:35.031Z,66.70
2019-02-26T22:13:03.282Z,66.70
2019-02-26T22:15:31.515Z,66.60
2019-02-26T22:17:59.966Z,66.70
2019-02-26T22:20:36.330Z,66.70
2019-02-26T22:23:01.307Z,66.90
2019-02-26T22:25:29.573Z,66.90
2019-02-26T22:27:57.819Z,67.10
2019-02-26T22:30:26.091Z,67.00
2019-02-26T22:32:54.343Z,67.20
2019-02-26T22:35:25.582Z,67.00
2019-02-26T22:37:52.631Z,66.90
2019-02-26T22:40:22.733Z,67.00
2019-02-26T22:42:50.867Z,67.70
2019-02-26T22:45:19.110Z,67.10
2019-02-26T22:47:47.371Z,67.50
2019-02-26T22:50:16.857Z,67.40
2019-02-26T22:52:45.123Z,67.50
2019-02-26T22:55:16.568Z,67.80
2019-02-26T22:57:44.487Z,67.90
2019-02-26T23:00:16.030Z,67.70
2019-02-26T23:02:44.276Z,67.90
2019-02-26T23:05:12.602Z,68.00
2019-02-26T23:07:40.946Z,67.80
2019-02-26T23:10:09.262Z,67.80
2019-02-26T23:12:57.208Z,67.70
2019-02-26T23:15:25.523Z,67.70
2019-02-26T23:17:58.161Z,68.00
2019-02-26T23:20:23.801Z,67.80
2019-02-26T23:22:52.153Z,68.00
2019-02-26T23:25:20.422Z,67.90
2019-02-26T23:27:49.303Z,67.80
2019-02-26T23:30:18.355Z,68.20
2019-02-26T23:32:46.714Z,67.50
2019-02-26T23:35:15.301Z,67.50
2019-02-26T23:37:43.641Z,67.30
2019-02-26T23:40:13.159Z,67.50
2019-02-26T23:42:41.463Z,67.30
2019-02-26T23:45:11.362Z,67.10
2019-02-26T23:47:39.789Z,67.40
2019-02-26T23:50:09.434Z,67.50
2019-02-26T23:52:37.699Z,67.60
2019-02-26T23:55:08.127Z,67.50
2019-02-26T23:57:36.387Z,67.50
